Погода Пхонсгхалина 2 недели

Луангпхабанг, Лаос

24 февраля-08 марта
  • 24февраля
    Сегодня
    +9°
    +25°
    Ясно и безоблачно
    ВремяПогодаТемператураВлажностьДавлениеВетер, м/сВероятность осадков
    01:00Ясно и безоблачно+13°C64 %630 мм1.4 м/с2 %
    04:00Ясно и безоблачно+14°C65 %629 мм1.5 м/с2 %
    07:00Ясно и безоблачно+12°C73 %630 мм1.1 м/с2 %
    10:00Ясно и безоблачно+18°C59 %634 мм1.4 м/с2 %
    13:00Ясно и безоблачно+24°C35 %634 мм3.1 м/с2 %
    16:00Ясно и безоблачно+24°C35 %633 мм3.1 м/с2 %
    19:00Ясно и безоблачно+19°C50 %631 мм1.8 м/с2 %
    22:00Ясно и безоблачно+16°C53 %632 мм1.3 м/с2 %
  • 25февраля
    Воскресенье
    +11°
    +24°
    Ясно и безоблачно
    ВремяПогодаТемператураВлажностьДавлениеВетер, м/сВероятность осадков
    01:00Ясно и безоблачно+13°C49 %630 мм1.4 м/с2 %
    04:00Ясно и безоблачно+11°C62 %629 мм1.1 м/с2 %
    07:00Ясно и безоблачно+9°C80 %630 мм1.2 м/с2 %
    10:00Практически безоблачно+16°C73 %634 мм1.3 м/с2 %
    13:00Ясно и безоблачно+21°C58 %634 мм2.2 м/с13 %
    16:00Ясно и безоблачно+24°C46 %633 мм2.6 м/с13 %
    19:00Ясно и безоблачно+19°C67 %632 мм1.6 м/с2 %
    22:00Ясно и безоблачно+17°C69 %632 мм1.8 м/с2 %
  • 26февраля
    Понедельник
    +11°
    +25°
    Практически безоблачно
    ВремяПогодаТемператураВлажностьДавлениеВетер, м/сВероятность осадков
    01:00Ясно и безоблачно+14°C75 %631 мм1.6 м/с2 %
    04:00Ясно и безоблачно+12°C82 %630 мм1.1 м/с2 %
    07:00Ясно и безоблачно+12°C86 %631 мм0.9 м/с2 %
    10:00Практически безоблачно+18°C67 %634 мм1.5 м/с2 %
    13:00Практически безоблачно+24°C45 %634 мм2.7 м/с6 %
    16:00Небольшая облачность+25°C41 %633 мм2.5 м/с2 %
    19:00Ясно и безоблачно+19°C62 %631 мм1.4 м/с2 %
    22:00Ясно и безоблачно+17°C64 %631 мм1.5 м/с2 %
  • 27февраля
    Вторник
    +12°
    +25°
    Ясно и безоблачно
    ВремяПогодаТемператураВлажностьДавлениеВетер, м/сВероятность осадков
    01:00Ясно и безоблачно+14°C63 %630 мм1.4 м/с2 %
    04:00Ясно и безоблачно+13°C68 %629 мм1.2 м/с2 %
    07:00Небольшая облачность+12°C73 %631 мм1.1 м/с2 %
    10:00Практически безоблачно+17°C61 %634 мм1.5 м/с2 %
    13:00Ясно и безоблачно+23°C45 %634 мм2.7 м/с24 %
    16:00Ясно и безоблачно+24°C43 %632 мм2.6 м/с14 %
    19:00Ясно и безоблачно+20°C62 %630 мм1.7 м/с6 %
    22:00Ясно и безоблачно+18°C62 %631 мм1.6 м/с2 %
  • 28февраля
    Среда
    +12°
    +26°
    Небольшая облачность и лёгкий дождик
    ВремяПогодаТемператураВлажностьДавлениеВетер, м/сВероятность осадков
    01:00Ясно и безоблачно+13°C66 %629 мм1.7 м/с2 %
    04:00Небольшая облачность+13°C76 %628 мм1.5 м/с4 %
    07:00Небольшая облачность+13°C81 %630 мм1.5 м/с22 %
    10:00Практически безоблачно+18°C67 %632 мм2.3 м/с14 %
    13:00Небольшая облачность и лёгкий дождик+24°C48 %632 мм4.2 м/с56 %
    16:00Ясно и безоблачно+26°C39 %630 мм3.3 м/с16 %
    19:00Ясно и безоблачно+19°C56 %629 мм2.6 м/с2 %
    22:00Ясно и безоблачно+17°C67 %630 мм2.4 м/с2 %
Мы используем cookies
Соглашаюсь